Time;durP1;ratioP1;P1;durP2;ratioP2;P2;SDS_P1;SDS_P2;PMS_P1;PMS_P2;Temp;Humidity;BMP_temperature;BMP_pressure;BME280_temperature;BME280_humidity;BME280_pressure;Samples;Min_cycle;Max_cycle;Signal;HPM_P1;HPM_P2
2022/10/20 00:01:03;;;;;;;6.90;3.72;;;11.70;99.90;;;;;;5032940;28;20041;-73
2022/10/20 00:03:29;;;;;;;7.55;3.25;;;11.70;99.90;;;;;;5015115;28;20036;-73
2022/10/20 00:06:04;;;;;;;5.70;3.95;;;11.70;99.90;;;;;;5015604;28;20021;-73
2022/10/20 00:08:30;;;;;;;6.60;3.13;;;11.80;99.90;;;;;;5015373;28;20027;-73
2022/10/20 00:10:56;;;;;;;7.20;3.35;;;11.70;99.90;;;;;;5032848;28;20021;-73
2022/10/20 00:13:23;;;;;;;7.85;3.15;;;11.50;99.90;;;;;;5035709;28;20030;-73
2022/10/20 00:15:50;;;;;;;5.70;3.38;;;11.40;99.90;;;;;;5018850;28;20116;-73
2022/10/20 00:18:15;;;;;;;4.40;3.00;;;11.40;99.90;;;;;;5035647;28;20492;-73
2022/10/20 00:20:41;;;;;;;5.97;3.35;;;11.40;99.90;;;;;;5018718;28;20104;-73
2022/10/20 00:23:07;;;;;;;4.25;3.00;;;11.30;99.90;;;;;;5018737;28;20028;-73
2022/10/20 00:25:32;;;;;;;4.80;2.95;;;11.20;99.90;;;;;;5036382;28;20026;-73
2022/10/20 00:27:58;;;;;;;3.20;2.78;;;11.20;99.90;;;;;;5018745;28;20032;-73
2022/10/20 00:30:23;;;;;;;7.57;2.95;;;11.20;99.90;;;;;;5018676;28;20063;-73
2022/10/20 00:32:49;;;;;;;12.65;3.50;;;11.20;99.90;;;;;;5036300;28;20026;-73
2022/10/20 00:35:14;;;;;;;7.82;3.28;;;11.20;99.90;;;;;;5036243;28;20033;-73
2022/10/20 00:37:40;;;;;;;7.03;2.90;;;11.20;99.90;;;;;;5019342;28;20029;-73
2022/10/20 00:40:06;;;;;;;7.35;3.08;;;11.20;99.90;;;;;;5018543;28;20029;-73
2022/10/20 00:42:31;;;;;;;7.57;3.28;;;11.10;99.90;;;;;;5018382;28;20026;-73
2022/10/20 00:44:59;;;;;;;7.28;3.40;;;11.10;99.90;;;;;;5018825;28;20075;-73
2022/10/20 00:47:49;;;;;;;6.60;3.30;;;11.10;99.90;;;;;;5018246;28;20026;-73
2022/10/20 00:50:26;;;;;;;5.72;2.88;;;11.00;99.90;;;;;;5019112;28;20080;-73
2022/10/20 00:52:53;;;;;;;4.93;2.92;;;10.90;99.90;;;;;;5018787;28;20025;-73
2022/10/20 00:55:25;;;;;;;3.47;2.63;;;10.90;99.90;;;;;;5035886;28;20024;-73
2022/10/20 00:57:53;;;;;;;6.07;3.45;;;10.80;99.90;;;;;;5018093;28;20064;-73
2022/10/20 01:00:19;;;;;;;5.25;3.53;;;10.70;99.90;;;;;;5018072;28;20025;-73
2022/10/20 01:02:45;;;;;;;6.18;2.67;;;10.70;99.90;;;;;;5035752;28;20392;-73
2022/10/20 01:05:12;;;;;;;5.45;3.20;;;10.90;99.90;;;;;;5018322;28;20059;-73
2022/10/20 01:07:38;;;;;;;10.57;2.80;;;10.80;99.90;;;;;;5017909;28;20029;-73
2022/10/20 01:10:05;;;;;;;5.53;3.65;;;10.70;99.90;;;;;;5018446;28;20031;-73
2022/10/20 01:12:38;;;;;;;8.80;2.85;;;10.70;99.90;;;;;;5017936;28;20116;-73
2022/10/20 01:15:22;;;;;;;7.72;3.13;;;10.60;99.90;;;;;;5017967;28;20025;-74
2022/10/20 01:18:06;;;;;;;5.75;3.28;;;10.60;99.90;;;;;;5034765;28;20045;-73
2022/10/20 01:21:03;;;;;;;6.60;3.20;;;10.50;99.90;;;;;;5034185;28;20024;-73
2022/10/20 01:23:51;;;;;;;6.65;3.15;;;10.50;99.90;;;;;;5033990;28;20129;-73
2022/10/20 01:26:45;;;;;;;9.38;3.13;;;10.20;99.90;;;;;;5034065;28;20032;-73
2022/10/20 01:29:27;;;;;;;5.60;2.92;;;10.30;99.90;;;;;;5034075;28;20052;-73
2022/10/20 01:32:11;;;;;;;5.22;3.28;;;10.40;99.90;;;;;;5035212;28;20071;-73
2022/10/20 01:34:44;;;;;;;7.85;3.50;;;10.30;99.90;;;;;;5017429;28;20087;-73
2022/10/20 01:37:24;;;;;;;8.93;2.95;;;10.00;99.90;;;;;;5033872;28;20053;-73
2022/10/20 01:39:59;;;;;;;7.13;3.78;;;9.90;99.90;;;;;;5035103;28;20098;-73
2022/10/20 01:42:28;;;;;;;7.00;3.00;;;9.90;99.90;;;;;;5017668;28;20468;-73
2022/10/20 01:44:56;;;;;;;8.40;3.20;;;10.00;99.90;;;;;;5017512;28;20033;-73
2022/10/20 01:47:25;;;;;;;9.15;3.92;;;10.00;99.90;;;;;;5017183;28;20484;-73
2022/10/20 01:49:52;;;;;;;7.45;3.47;;;10.10;99.90;;;;;;5034892;28;20026;-73
2022/10/20 01:52:17;;;;;;;7.22;3.80;;;9.90;99.90;;;;;;5017626;28;20047;-73
2022/10/20 01:54:43;;;;;;;7.22;2.95;;;9.90;99.90;;;;;;5016880;28;20540;-73
2022/10/20 01:57:32;;;;;;;7.20;3.17;;;9.80;99.90;;;;;;5034997;28;20033;-73
2022/10/20 02:00:16;;;;;;;5.85;3.22;;;9.70;99.90;;;;;;5016915;28;20028;-73
2022/10/20 02:02:49;;;;;;;13.40;4.00;;;9.80;99.90;;;;;;5034928;28;20029;-73
2022/10/20 02:05:25;;;;;;;6.97;3.53;;;9.50;99.90;;;;;;5033315;28;20021;-73
2022/10/20 02:07:53;;;;;;;8.00;3.58;;;9.40;99.90;;;;;;5034602;28;20187;-73
2022/10/20 02:10:30;;;;;;;7.15;3.55;;;9.50;99.90;;;;;;5033560;28;20104;-73
2022/10/20 02:13:00;;;;;;;7.57;3.60;;;9.60;99.90;;;;;;5034488;28;20076;-73
2022/10/20 02:15:28;;;;;;;8.35;3.35;;;9.60;99.90;;;;;;5016723;28;20028;-73
2022/10/20 02:18:02;;;;;;;6.97;4.00;;;9.60;99.90;;;;;;5034300;28;20030;-73
2022/10/20 02:20:28;;;;;;;7.07;3.78;;;9.40;99.90;;;;;;5016718;28;20388;-73
2022/10/20 02:22:56;;;;;;;6.70;3.63;;;9.50;99.90;;;;;;5016509;28;20026;-73
2022/10/20 02:25:23;;;;;;;5.57;3.05;;;9.50;99.90;;;;;;5016319;28;20025;-74
2022/10/20 02:27:50;;;;;;;8.68;3.75;;;9.50;99.90;;;;;;5016488;28;20033;-75
2022/10/20 02:30:17;;;;;;;8.93;3.72;;;9.50;99.90;;;;;;5016707;28;20021;-75
2022/10/20 02:32:48;;;;;;;6.55;3.20;;;9.50;99.90;;;;;;5016312;28;20032;-74
2022/10/20 02:35:24;;;;;;;8.30;3.67;;;9.60;99.90;;;;;;5016313;28;20029;-74
2022/10/20 02:38:02;;;;;;;7.80;3.95;;;9.60;99.90;;;;;;5033932;28;20095;-74
2022/10/20 02:40:28;;;;;;;12.23;4.25;;;9.70;99.90;;;;;;5033888;28;20026;-74
2022/10/20 02:42:54;;;;;;;7.93;4.50;;;9.60;99.90;;;;;;5016074;28;20024;-74
2022/10/20 02:45:20;;;;;;;9.68;4.43;;;9.50;99.90;;;;;;5016016;28;20026;-74
2022/10/20 02:47:45;;;;;;;8.35;3.90;;;9.50;99.90;;;;;;5033765;28;20033;-74
2022/10/20 02:50:11;;;;;;;12.05;3.92;;;9.60;99.90;;;;;;5016296;28;20029;-74
2022/10/20 02:52:37;;;;;;;7.45;3.75;;;9.50;99.90;;;;;;5016066;28;20495;-74
2022/10/20 02:55:04;;;;;;;6.60;3.50;;;9.60;99.90;;;;;;5016192;28;20021;-74
2022/10/20 02:57:29;;;;;;;10.63;4.03;;;9.70;99.90;;;;;;5033501;28;20100;-75
2022/10/20 02:59:55;;;;;;;5.78;3.65;;;9.80;99.90;;;;;;5016699;28;20111;-74
2022/10/20 03:02:20;;;;;;;9.07;3.55;;;9.80;99.90;;;;;;5015812;28;20025;-74
2022/10/20 03:04:46;;;;;;;12.68;4.25;;;9.60;99.90;;;;;;5033460;28;20028;-74
2022/10/20 03:07:12;;;;;;;7.97;3.65;;;9.60;99.90;;;;;;5016104;28;20017;-74
2022/10/20 03:09:38;;;;;;;5.35;3.08;;;9.50;99.90;;;;;;5016003;28;20032;-74
2022/10/20 03:12:03;;;;;;;7.95;3.78;;;9.50;99.90;;;;;;5015691;28;20113;-74
2022/10/20 03:14:29;;;;;;;8.02;3.83;;;9.50;99.90;;;;;;5016379;28;20029;-74
2022/10/20 03:16:54;;;;;;;10.93;3.83;;;9.40;99.90;;;;;;5015695;28;20089;-74
2022/10/20 03:19:20;;;;;;;7.13;3.83;;;9.40;99.90;;;;;;5015717;28;20024;-74
2022/10/20 03:21:47;;;;;;;9.80;4.10;;;9.20;99.90;;;;;;5016705;28;20456;-74
2022/10/20 03:24:13;;;;;;;8.52;4.10;;;9.00;99.90;;;;;;5015781;28;20025;-74
2022/10/20 03:26:38;;;;;;;7.95;4.07;;;9.00;99.90;;;;;;5033529;28;20025;-74
2022/10/20 03:29:04;;;;;;;6.10;3.80;;;8.90;99.90;;;;;;5015544;28;20025;-74
2022/10/20 03:31:30;;;;;;;5.68;3.58;;;8.90;99.90;;;;;;5015570;28;20076;-74
2022/10/20 03:33:55;;;;;;;8.75;4.10;;;9.00;99.90;;;;;;5015916;28;20094;-75
2022/10/20 03:36:21;;;;;;;7.00;4.07;;;9.10;99.90;;;;;;5015385;28;20037;-75
2022/10/20 03:38:46;;;;;;;8.85;3.72;;;9.20;99.90;;;;;;5033127;28;20021;-75
2022/10/20 03:41:12;;;;;;;6.70;4.13;;;9.20;99.90;;;;;;5033140;28;20092;-75
2022/10/20 03:43:38;;;;;;;12.80;4.07;;;9.20;99.90;;;;;;5015287;28;20021;-75
2022/10/20 03:46:07;;;;;;;5.43;3.33;;;9.10;99.90;;;;;;5015445;28;20127;-75
2022/10/20 03:48:32;;;;;;;8.73;3.88;;;9.10;99.90;;;;;;5018671;28;20053;-75
2022/10/20 03:51:00;;;;;;;7.28;3.97;;;9.10;99.90;;;;;;5037086;28;20029;-75
2022/10/20 03:53:25;;;;;;;7.78;3.83;;;9.00;99.90;;;;;;5019543;28;20053;-75
2022/10/20 03:55:51;;;;;;;7.40;3.67;;;8.80;99.90;;;;;;5019227;28;20064;-75
2022/10/20 03:58:17;;;;;;;10.10;4.85;;;8.90;99.90;;;;;;5037193;28;20113;-75
2022/10/20 04:00:42;;;;;;;8.55;4.07;;;8.70;99.90;;;;;;5019440;28;20026;-75
2022/10/20 04:03:08;;;;;;;13.57;4.68;;;8.90;99.90;;;;;;5019119;28;20021;-75
2022/10/20 04:05:33;;;;;;;8.93;4.07;;;8.90;99.90;;;;;;5019032;28;20025;-75
2022/10/20 04:07:59;;;;;;;10.93;4.57;;;9.00;99.90;;;;;;5020188;28;20029;-75
2022/10/20 04:10:24;;;;;;;12.10;4.88;;;8.90;99.90;;;;;;5019009;28;20024;-75
2022/10/20 04:12:50;;;;;;;11.00;3.85;;;9.10;99.90;;;;;;5019829;28;20026;-75
2022/10/20 04:15:17;;;;;;;5.65;3.95;;;9.10;99.90;;;;;;5036611;28;20097;-75
2022/10/20 04:17:43;;;;;;;6.45;4.40;;;8.80;99.90;;;;;;5036739;28;20066;-75
2022/10/20 04:20:09;;;;;;;7.97;3.95;;;8.70;99.90;;;;;;5019561;28;20022;-75
2022/10/20 04:22:34;;;;;;;5.75;4.25;;;8.60;99.90;;;;;;5037016;28;20025;-75
2022/10/20 04:25:00;;;;;;;8.20;4.13;;;8.70;99.90;;;;;;5018981;28;20053;-75
2022/10/20 04:27:27;;;;;;;8.82;4.50;;;8.80;99.90;;;;;;5018707;28;20112;-75
2022/10/20 04:29:53;;;;;;;9.23;5.43;;;8.90;99.90;;;;;;5019456;28;20036;-76
2022/10/20 04:32:18;;;;;;;13.70;4.07;;;8.80;99.90;;;;;;5019547;28;20022;-75
2022/10/20 04:34:43;;;;;;;9.02;4.60;;;8.70;99.90;;;;;;5018564;28;20115;-75
2022/10/20 04:37:09;;;;;;;6.43;4.25;;;8.70;99.90;;;;;;5018428;28;20032;-75
2022/10/20 04:39:34;;;;;;;7.18;4.00;;;8.70;99.90;;;;;;5018435;28;20040;-75
2022/10/20 04:42:00;;;;;;;8.05;4.30;;;8.80;99.90;;;;;;5018640;28;20025;-75
2022/10/20 04:44:26;;;;;;;7.82;4.53;;;8.70;99.90;;;;;;5036041;28;20512;-76
2022/10/20 04:46:53;;;;;;;9.93;4.10;;;8.80;99.90;;;;;;5018299;28;20033;-75
2022/10/20 04:49:18;;;;;;;10.10;5.00;;;8.70;99.90;;;;;;5018286;28;20026;-75
2022/10/20 04:51:44;;;;;;;8.98;4.32;;;8.70;99.90;;;;;;5035961;28;20036;-75
2022/10/20 04:54:09;;;;;;;7.85;4.50;;;8.50;99.90;;;;;;5018437;28;20028;-75
2022/10/20 04:56:35;;;;;;;9.23;4.95;;;8.60;99.90;;;;;;5018072;28;20029;-75
2022/10/20 04:59:01;;;;;;;10.05;4.65;;;8.50;99.90;;;;;;5018748;28;20021;-75
2022/10/20 05:01:29;;;;;;;7.65;4.82;;;8.50;99.90;;;;;;5018390;28;20026;-76
2022/10/20 05:03:55;;;;;;;7.43;4.55;;;8.50;99.90;;;;;;5018031;28;20022;-76
2022/10/20 05:06:23;;;;;;;7.30;4.47;;;8.70;99.90;;;;;;5018982;28;20036;-76
2022/10/20 05:08:52;;;;;;;10.50;4.68;;;8.80;99.90;;;;;;5017771;28;20488;-76
2022/10/20 05:11:20;;;;;;;8.57;4.30;;;8.90;99.90;;;;;;5017957;28;20033;-76
2022/10/20 05:13:46;;;;;;;6.40;4.30;;;9.00;99.90;;;;;;5018030;28;20025;-76
2022/10/20 05:16:12;;;;;;;8.68;4.57;;;9.10;99.90;;;;;;5035414;28;20112;-76
2022/10/20 05:18:39;;;;;;;12.73;4.57;;;9.00;99.90;;;;;;5035470;28;20032;-76
2022/10/20 05:21:10;;;;;;;9.65;4.55;;;8.90;99.90;;;;;;5018480;28;20025;-75
2022/10/20 05:23:35;;;;;;;8.85;5.00;;;8.90;99.90;;;;;;5017763;28;20022;-75
2022/10/20 05:26:02;;;;;;;11.98;4.90;;;8.90;99.90;;;;;;5035310;28;20079;-76
2022/10/20 05:28:28;;;;;;;14.20;5.70;;;8.90;99.90;;;;;;5017508;28;20435;-76
2022/10/20 05:30:53;;;;;;;11.02;4.75;;;8.80;99.90;;;;;;5035457;28;20025;-75
2022/10/20 05:33:19;;;;;;;8.48;4.88;;;8.80;99.90;;;;;;5017456;28;20029;-75
2022/10/20 05:35:44;;;;;;;10.02;4.75;;;8.80;99.90;;;;;;5017260;28;20021;-75
2022/10/20 05:38:10;;;;;;;8.32;4.97;;;8.90;99.90;;;;;;5017274;28;20022;-75
2022/10/20 05:40:35;;;;;;;10.57;5.53;;;9.00;99.90;;;;;;5018153;28;20014;-75
2022/10/20 05:43:01;;;;;;;12.13;6.57;;;8.90;99.90;;;;;;5018030;28;20021;-75
2022/10/20 05:45:27;;;;;;;10.68;5.00;;;8.90;99.90;;;;;;5034968;28;20026;-75
2022/10/20 05:47:52;;;;;;;10.60;4.90;;;8.90;99.90;;;;;;5018049;28;20026;-75
2022/10/20 05:50:18;;;;;;;8.13;4.78;;;8.90;99.90;;;;;;5017450;28;20040;-75
2022/10/20 05:52:43;;;;;;;7.35;4.07;;;8.90;99.90;;;;;;5017774;28;20100;-76
2022/10/20 05:55:09;;;;;;;7.13;4.65;;;9.00;99.90;;;;;;5017867;28;20029;-75
2022/10/20 05:57:35;;;;;;;10.50;5.10;;;9.00;99.90;;;;;;5017073;28;20026;-75
2022/10/20 06:00:00;;;;;;;8.50;4.85;;;8.70;99.90;;;;;;5034949;28;20476;-75
2022/10/20 06:02:26;;;;;;;11.65;5.15;;;8.70;99.90;;;;;;5016934;28;20029;-75
2022/10/20 06:04:51;;;;;;;9.80;5.60;;;8.70;99.90;;;;;;5016964;28;20128;-75
2022/10/20 06:07:17;;;;;;;8.98;5.45;;;8.60;99.90;;;;;;5017179;28;20025;-75
2022/10/20 06:09:42;;;;;;;8.88;5.40;;;8.70;99.90;;;;;;5016088;28;20394;-75
2022/10/20 06:12:08;;;;;;;7.90;5.15;;;8.50;99.90;;;;;;5016723;28;20025;-76
2022/10/20 06:14:33;;;;;;;12.70;5.10;;;8.60;99.90;;;;;;5034360;28;20037;-75
2022/10/20 06:16:59;;;;;;;13.55;4.68;;;8.70;99.90;;;;;;5034578;28;20029;-75
2022/10/20 06:19:24;;;;;;;8.77;5.05;;;8.70;99.90;;;;;;5016563;28;20093;-76
2022/10/20 06:21:50;;;;;;;8.18;4.70;;;8.80;99.90;;;;;;5034226;28;20017;-76
2022/10/20 06:24:17;;;;;;;12.18;4.70;;;8.70;99.90;;;;;;5016455;28;20026;-75
2022/10/20 06:26:43;;;;;;;10.10;5.00;;;8.80;99.90;;;;;;5016718;28;20031;-75
2022/10/20 06:29:11;;;;;;;8.18;5.30;;;8.90;99.90;;;;;;5016471;28;20021;-75
2022/10/20 06:31:48;;;;;;;7.50;4.68;;;8.90;99.90;;;;;;5016666;28;20075;-75
2022/10/20 06:34:17;;;;;;;8.50;4.45;;;9.10;99.90;;;;;;5016312;28;20069;-75
2022/10/20 06:36:43;;;;;;;7.65;4.75;;;9.00;99.90;;;;;;5016140;28;20030;-75
2022/10/20 06:39:12;;;;;;;15.05;5.35;;;9.10;99.90;;;;;;5016848;28;20083;-75
2022/10/20 06:41:38;;;;;;;11.88;5.90;;;9.10;99.90;;;;;;5016143;28;20021;-75
2022/10/20 06:44:04;;;;;;;15.52;7.50;;;8.90;99.90;;;;;;5016082;28;20244;-75
2022/10/20 06:46:31;;;;;;;12.55;5.90;;;9.00;99.90;;;;;;5016925;28;20064;-75
2022/10/20 06:49:10;;;;;;;7.55;5.57;;;8.90;99.90;;;;;;5016020;28;20121;-76
2022/10/20 06:51:36;;;;;;;11.10;5.53;;;8.90;99.90;;;;;;5016061;28;20022;-76
2022/10/20 06:54:02;;;;;;;11.18;4.85;;;8.80;99.90;;;;;;5016017;28;20061;-76
2022/10/20 06:56:30;;;;;;;12.68;5.47;;;8.80;99.90;;;;;;5015914;28;20025;-76
2022/10/20 06:58:57;;;;;;;12.43;5.78;;;9.00;99.90;;;;;;5033901;28;20025;-76
2022/10/20 07:01:28;;;;;;;13.57;5.65;;;9.00;99.90;;;;;;5015878;28;20021;-76
2022/10/20 07:03:57;;;;;;;8.90;5.30;;;9.20;99.90;;;;;;5033602;28;20029;-76
2022/10/20 07:06:27;;;;;;;10.15;5.32;;;9.30;99.90;;;;;;5033406;28;20028;-76
2022/10/20 07:08:55;;;;;;;9.50;5.88;;;9.20;99.90;;;;;;5015630;28;20024;-76
2022/10/20 07:11:23;;;;;;;12.10;5.38;;;9.10;99.90;;;;;;5016277;28;20129;-76
2022/10/20 07:13:48;;;;;;;10.07;5.47;;;9.10;99.90;;;;;;5015590;28;20033;-76
2022/10/20 07:16:20;;;;;;;13.40;6.22;;;9.20;99.90;;;;;;5015893;28;20108;-76
2022/10/20 07:18:46;;;;;;;8.77;5.47;;;9.10;99.90;;;;;;5016515;28;20112;-76
2022/10/20 07:21:15;;;;;;;12.05;6.70;;;9.30;99.90;;;;;;5033378;28;20037;-76
2022/10/20 07:23:42;;;;;;;12.50;5.70;;;9.40;99.90;;;;;;5033248;28;20052;-76
2022/10/20 07:26:14;;;;;;;11.90;5.78;;;9.50;99.90;;;;;;5016524;28;20108;-76
2022/10/20 07:28:42;;;;;;;10.52;5.38;;;9.70;99.90;;;;;;5033652;28;20109;-76
2022/10/20 07:31:14;;;;;;;10.75;4.90;;;9.90;99.90;;;;;;5033170;28;20083;-76
2022/10/20 07:33:39;;;;;;;;;;;9.90;99.90;;;;;;5015809;28;20022;-75
2022/10/20 07:36:16;;;;;;;8.43;5.60;;;9.90;99.90;;;;;;5016300;28;19912;-75
2022/10/20 07:38:43;;;;;;;16.48;6.38;;;10.00;99.90;;;;;;5015457;28;20025;-75
2022/10/20 07:41:09;;;;;;;14.68;6.00;;;10.00;99.90;;;;;;5015413;28;20113;-76
2022/10/20 07:43:36;;;;;;;10.45;6.18;;;10.10;99.90;;;;;;5033337;28;20083;-76
2022/10/20 07:46:01;;;;;;;11.15;6.32;;;10.20;99.90;;;;;;5015412;28;20440;-76
2022/10/20 07:48:27;;;;;;;12.80;5.60;;;10.20;99.90;;;;;;5015713;28;20030;-76
2022/10/20 07:50:52;;;;;;;11.73;5.43;;;10.20;99.90;;;;;;5033290;28;20072;-76
2022/10/20 07:53:18;;;;;;;10.68;5.75;;;10.20;99.90;;;;;;5033098;28;20072;-76
2022/10/20 07:55:44;;;;;;;10.50;5.35;;;10.30;99.90;;;;;;5015289;28;20047;-76
2022/10/20 07:58:10;;;;;;;12.85;5.47;;;10.40;99.90;;;;;;5015439;28;20495;-76
2022/10/20 08:00:36;;;;;;;10.65;5.70;;;10.30;99.90;;;;;;5015315;28;20148;-76
2022/10/20 08:03:02;;;;;;;8.45;5.50;;;10.30;99.90;;;;;;5015266;28;20025;-76
2022/10/20 08:05:28;;;;;;;12.38;6.25;;;10.40;99.90;;;;;;5015123;28;20033;-76
2022/10/20 08:07:54;;;;;;;14.32;6.45;;;10.60;99.90;;;;;;5015205;28;20029;-76
2022/10/20 08:10:19;;;;;;;18.02;7.88;;;10.80;99.90;;;;;;5015239;28;20030;-76
2022/10/20 08:12:45;;;;;;;13.65;6.15;;;10.80;99.90;;;;;;5015248;28;20026;-76
2022/10/20 08:15:10;;;;;;;7.53;5.70;;;10.90;99.90;;;;;;5015482;28;20083;-76
2022/10/20 08:17:36;;;;;;;9.18;5.88;;;11.00;99.90;;;;;;5015450;28;20026;-75
2022/10/20 08:20:02;;;;;;;15.60;5.75;;;11.10;99.90;;;;;;5033099;28;20025;-75
2022/10/20 08:22:28;;;;;;;9.27;5.90;;;11.20;99.90;;;;;;5032741;28;20022;-76
2022/10/20 08:24:54;;;;;;;15.93;6.65;;;11.30;99.90;;;;;;5015031;28;20508;-76
2022/10/20 08:27:20;;;;;;;9.50;5.57;;;11.50;99.90;;;;;;5015635;28;20025;-76
2022/10/20 08:29:45;;;;;;;8.88;5.97;;;11.60;99.90;;;;;;5015014;28;20546;-76
2022/10/20 08:32:13;;;;;;;16.50;5.85;;;11.70;99.90;;;;;;5015140;28;20025;-76
2022/10/20 08:34:38;;;;;;;8.32;5.47;;;11.70;99.90;;;;;;5035765;28;20037;-76
2022/10/20 08:37:04;;;;;;;13.80;7.13;;;11.70;99.90;;;;;;5036275;28;20021;-76
2022/10/20 08:39:29;;;;;;;11.27;7.38;;;11.70;99.90;;;;;;5018915;28;20022;-77
2022/10/20 08:41:56;;;;;;;14.38;7.03;;;11.60;99.90;;;;;;5018544;28;20018;-77
2022/10/20 08:44:34;;;;;;;11.15;5.93;;;11.70;99.90;;;;;;5018493;28;20083;-77
2022/10/20 08:47:02;;;;;;;10.25;6.63;;;11.90;99.90;;;;;;5036245;28;20028;-77
2022/10/20 08:49:33;;;;;;;11.52;6.70;;;11.90;99.90;;;;;;5018457;28;20026;-77
2022/10/20 08:51:59;;;;;;;13.15;6.05;;;12.00;99.90;;;;;;5036144;28;20028;-76
2022/10/20 08:54:25;;;;;;;11.77;6.25;;;12.20;99.90;;;;;;5018254;28;20036;-76
2022/10/20 08:56:51;;;;;;;10.32;6.30;;;12.20;99.90;;;;;;5035856;28;20104;-76
2022/10/20 08:59:33;;;;;;;11.10;7.35;;;12.10;99.90;;;;;;5035771;28;20026;-77
2022/10/20 09:01:59;;;;;;;10.70;6.70;;;11.90;99.90;;;;;;5018235;28;20473;-77
2022/10/20 09:04:29;;;;;;;11.10;6.60;;;11.80;99.90;;;;;;5018409;28;20083;-77
2022/10/20 09:06:59;;;;;;;10.80;6.53;;;11.80;99.90;;;;;;5036240;28;20022;-77
2022/10/20 09:09:29;;;;;;;12.45;6.20;;;11.90;99.90;;;;;;5036131;28;20072;-77
2022/10/20 09:12:02;;;;;;;20.75;7.50;;;12.00;99.90;;;;;;5018074;28;20026;-78
2022/10/20 09:14:32;;;;;;;12.60;6.65;;;12.10;99.90;;;;;;5017841;28;20026;-76
2022/10/20 09:16:57;;;;;;;9.25;5.82;;;12.40;99.90;;;;;;5017903;28;20124;-76
2022/10/20 09:19:23;;;;;;;9.93;6.03;;;12.60;99.90;;;;;;5017881;28;20112;-75
2022/10/20 09:21:52;;;;;;;10.90;6.10;;;12.60;99.90;;;;;;5035524;28;20031;-76
2022/10/20 09:24:21;;;;;;;14.35;6.90;;;12.60;99.90;;;;;;5035554;28;20018;-77
2022/10/20 09:26:48;;;;;;;16.73;8.30;;;12.30;99.90;;;;;;5017743;28;20036;-75
2022/10/20 09:29:20;;;;;;;9.18;6.30;;;12.30;99.90;;;;;;5017588;28;20021;-75
2022/10/20 09:31:52;;;;;;;10.38;6.03;;;12.30;99.90;;;;;;5017955;28;20022;-76
2022/10/20 09:34:20;;;;;;;;;;;12.20;99.90;;;;;;5019091;28;20057;-73
2022/10/20 09:36:47;;;;;;;10.38;5.95;;;12.20;99.90;;;;;;5035242;28;19909;-73
2022/10/20 09:39:26;;;;;;;9.25;5.78;;;12.10;99.90;;;;;;5017425;28;20025;-72
2022/10/20 09:42:01;;;;;;;10.52;6.30;;;12.10;99.90;;;;;;5018383;28;20207;-72
2022/10/20 09:44:29;;;;;;;12.60;6.30;;;12.00;99.90;;;;;;5017356;28;20080;-73
2022/10/20 09:46:55;;;;;;;12.85;5.15;;;12.10;99.90;;;;;;5017502;28;20021;-73
2022/10/20 09:49:24;;;;;;;8.35;6.10;;;12.30;99.90;;;;;;5025059;28;20017;-74
2022/10/20 09:51:51;;;;;;;9.57;6.03;;;12.40;99.90;;;;;;5035497;28;20021;-74
2022/10/20 09:54:19;;;;;;;11.32;6.10;;;12.70;99.90;;;;;;5018028;28;20095;-73
2022/10/20 09:56:48;;;;;;;12.52;6.28;;;12.80;99.90;;;;;;5017197;28;20034;-73
2022/10/20 09:59:20;;;;;;;13.43;6.32;;;12.70;99.90;;;;;;5034899;28;20036;-74
2022/10/20 10:01:56;;;;;;;9.30;5.53;;;12.50;99.90;;;;;;5017094;28;20020;-73
2022/10/20 10:04:38;;;;;;;12.60;6.75;;;12.60;99.90;;;;;;5031922;28;20026;-74
2022/10/20 10:07:25;;;;;;;9.55;6.07;;;12.90;99.90;;;;;;4998183;28;20030;-73
2022/10/20 10:09:56;;;;;;;12.38;6.82;;;12.80;99.90;;;;;;4998062;28;20022;-73
2022/10/20 10:12:25;;;;;;;11.00;6.00;;;12.60;99.90;;;;;;5014824;28;20111;-73
2022/10/20 10:14:53;;;;;;;11.32;6.43;;;12.70;99.90;;;;;;5014971;28;20038;-73
2022/10/20 10:17:31;;;;;;;11.55;6.07;;;12.80;99.90;;;;;;5014647;28;20025;-74
2022/10/20 10:19:57;;;;;;;11.48;6.38;;;12.80;99.90;;;;;;4997081;28;20072;-74
2022/10/20 10:22:23;;;;;;;11.45;6.22;;;13.10;99.90;;;;;;4997846;28;20021;-74
2022/10/20 10:24:49;;;;;;;12.43;6.25;;;13.10;99.90;;;;;;4996880;28;20076;-73
2022/10/20 10:27:25;;;;;;;13.32;6.57;;;13.10;99.90;;;;;;4996924;28;20036;-73
2022/10/20 10:29:55;;;;;;;8.68;5.85;;;13.20;99.90;;;;;;5015016;28;20022;-73
2022/10/20 10:32:28;;;;;;;16.02;6.82;;;13.40;99.90;;;;;;5014674;28;20030;-73
2022/10/20 10:35:12;;;;;;;12.98;6.75;;;13.50;99.90;;;;;;5014386;28;20124;-73
2022/10/20 10:37:40;;;;;;;12.02;5.70;;;13.60;99.90;;;;;;5014257;28;20026;-73
2022/10/20 10:40:16;;;;;;;9.05;5.70;;;13.60;99.90;;;;;;4996920;28;20029;-74
2022/10/20 10:42:50;;;;;;;9.73;6.50;;;13.50;99.90;;;;;;4997929;28;20087;-74
2022/10/20 10:45:27;;;;;;;14.85;6.15;;;13.40;99.90;;;;;;5015122;28;20025;-74
2022/10/20 10:48:14;;;;;;;11.02;6.68;;;13.50;99.90;;;;;;4997835;28;20068;-74
2022/10/20 10:50:43;;;;;;;12.98;7.22;;;13.20;99.90;;;;;;4999878;28;20117;-74
2022/10/20 10:53:28;;;;;;;11.30;6.80;;;13.10;99.90;;;;;;4999312;28;20033;-74
2022/10/20 10:56:04;;;;;;;12.43;7.40;;;13.10;99.90;;;;;;5004229;28;20034;-75
2022/10/20 10:58:44;;;;;;;12.93;7.57;;;13.10;99.90;;;;;;4996732;28;20097;-74
2022/10/20 11:01:25;;;;;;;15.38;7.22;;;13.20;99.90;;;;;;4996679;28;20088;-74
2022/10/20 11:04:32;;;;;;;11.85;6.90;;;13.20;99.90;;;;;;4996571;28;20022;-74
2022/10/20 11:07:20;;;;;;;13.18;7.13;;;13.00;99.90;;;;;;4937908;29;20032;-74
2022/10/20 11:10:19;;;;;;;11.32;7.85;;;13.30;99.90;;;;;;4937690;29;20439;-74
2022/10/20 11:12:48;;;;;;;9.43;6.30;;;13.30;99.90;;;;;;4937988;29;20042;-74
2022/10/20 11:15:46;;;;;;;10.88;6.68;;;13.50;99.90;;;;;;4937811;29;20035;-75
2022/10/20 11:18:33;;;;;;;13.80;7.72;;;13.60;99.90;;;;;;4938067;29;20055;-75
2022/10/20 11:21:17;;;;;;;17.10;7.97;;;13.70;99.90;;;;;;4937439;29;20126;-75
2022/10/20 11:23:48;;;;;;;13.25;7.47;;;13.80;99.90;;;;;;4937589;28;20062;-75
2022/10/20 11:26:36;;;;;;;14.45;7.75;;;13.70;99.90;;;;;;4937600;29;20063;-75
2022/10/20 11:29:08;;;;;;;16.63;8.30;;;13.30;99.90;;;;;;4953726;28;20024;-76
2022/10/20 11:31:45;;;;;;;20.98;6.85;;;13.30;99.90;;;;;;4937591;29;20035;-76
2022/10/20 11:34:17;;;;;;;13.25;7.18;;;13.40;99.90;;;;;;4937545;29;20031;-76
2022/10/20 11:36:48;;;;;;;14.73;7.88;;;13.40;99.90;;;;;;4942321;28;20499;-75
2022/10/20 11:39:33;;;;;;;16.83;8.00;;;13.40;99.90;;;;;;4996335;28;20022;-74
2022/10/20 11:42:22;;;;;;;13.10;8.23;;;13.20;99.90;;;;;;4996337;28;20022;-74
2022/10/20 11:44:48;;;;;;;15.57;7.68;;;13.10;99.90;;;;;;4996307;28;20497;-74
2022/10/20 11:47:20;;;;;;;15.20;7.97;;;13.20;99.90;;;;;;4996519;28;20053;-74
2022/10/20 11:49:45;;;;;;;18.42;7.93;;;13.20;99.90;;;;;;4997050;28;20025;-74
2022/10/20 11:52:29;;;;;;;14.43;8.43;;;13.00;99.90;;;;;;4998480;28;20032;-75
2022/10/20 11:55:16;;;;;;;16.08;8.45;;;12.80;99.90;;;;;;4998327;28;20109;-75
2022/10/20 11:58:00;;;;;;;12.77;7.40;;;12.80;99.90;;;;;;4999596;28;20029;-75
2022/10/20 12:00:45;;;;;;;15.23;7.70;;;13.00;99.90;;;;;;5004902;28;20034;-75
2022/10/20 12:03:58;;;;;;;14.00;7.82;;;13.30;99.90;;;;;;4996490;28;20116;-76
2022/10/20 12:06:43;;;;;;;17.70;9.35;;;13.50;99.90;;;;;;4990576;28;20034;-76
2022/10/20 12:09:42;;;;;;;13.85;7.63;;;13.60;99.90;;;;;;4998510;28;20022;-76
2022/10/20 12:12:19;;;;;;;13.80;7.75;;;13.60;99.90;;;;;;4972841;28;20041;-76
2022/10/20 12:14:59;;;;;;;13.88;7.30;;;13.70;99.90;;;;;;4999663;28;20026;-76
2022/10/20 12:17:35;;;;;;;16.98;8.23;;;13.80;99.90;;;;;;4999440;28;20041;-76
2022/10/20 12:20:36;;;;;;;12.45;7.95;;;13.80;99.90;;;;;;4999543;28;20029;-76
2022/10/20 12:23:02;;;;;;;13.30;6.78;;;13.80;99.90;;;;;;4968467;28;20062;-76
2022/10/20 12:25:35;;;;;;;18.13;7.78;;;13.70;99.90;;;;;;4999237;28;20090;-74
2022/10/20 12:28:18;;;;;;;16.50;8.13;;;13.80;99.90;;;;;;5000227;28;20029;-74
2022/10/20 12:30:52;;;;;;;12.40;8.05;;;13.90;99.90;;;;;;5000090;28;20022;-74
2022/10/20 12:33:32;;;;;;;11.70;7.95;;;13.90;99.90;;;;;;5000592;28;20065;-73
2022/10/20 12:36:16;;;;;;;14.18;7.72;;;13.90;99.90;;;;;;5000139;28;20129;-74
2022/10/20 12:39:10;;;;;;;14.68;7.50;;;13.70;99.90;;;;;;5000286;28;20381;-74
2022/10/20 12:41:43;;;;;;;15.65;8.48;;;13.70;99.90;;;;;;4992807;28;20034;-74
2022/10/20 12:44:17;;;;;;;15.05;8.77;;;13.70;99.90;;;;;;5000011;28;20089;-74
2022/10/20 12:46:56;;;;;;;16.60;8.75;;;13.70;99.90;;;;;;5000664;28;20057;-74
2022/10/20 12:49:34;;;;;;;17.30;9.48;;;13.80;99.90;;;;;;5000817;28;20021;-74
2022/10/20 12:52:01;;;;;;;13.60;8.70;;;13.70;99.90;;;;;;5000411;28;20045;-74
2022/10/20 12:54:40;;;;;;;19.13;8.18;;;13.80;99.90;;;;;;5001076;28;20025;-74
2022/10/20 12:57:40;;;;;;;14.45;8.55;;;13.90;99.90;;;;;;5001637;28;20069;-74
2022/10/20 13:00:18;;;;;;;18.52;9.57;;;13.80;99.90;;;;;;5002558;28;20017;-74
2022/10/20 13:02:53;;;;;;;18.42;10.23;;;13.50;99.90;;;;;;5003148;28;20022;-74
2022/10/20 13:05:18;;;;;;;20.27;9.98;;;13.40;99.90;;;;;;5011250;28;20037;-74